Nearby METAR Reports


Data Updates Approximately Every Four Hours

METAR is the international standard code format for hourly surface weather observations which is analogous to the SA coding currently used in the US. The acronym roughly translates from French as Aviation Routine Weather Report. SPECI is merely the code name given to METAR formatted products which are issued on a special non-routine basis as dictated by changing meteorological conditions. The SPECI acronym roughly translates as Aviation Selected Special Weather Report.

KSLH - Cheboygan, Michigan, USA
Distance from station: W 9mi, 14km
Updated: 01/19/2021 8:15pm
Light snow, Overcast
Light snow, Overcast
 Wind from WNW
Wind: WNW 8 mph , 13 km/h
Temperature: 19°F , -7°C
Wind Chill: 9°F , -13°C
Dew Point: 16°F , -9°C
Humidity: 86%
Barometer: 30.00 inHg , 1015.9 hPa
Summary: Light Snow
Clouds: Overcast
Visibility: 2 1/2 miles , 4 km
Cloud details: Partly cloudy 500 ft
Mostly cloudy 900 ft
Overcast 2300 ft
2021/01/20 01:15 KSLH 200115Z AUTO 29007KT 2 1/2SM -SN SCT005 BKN009 OVC023 M07/M09 A3000 RMK AO2
KMCD - Mackinac Island, Michigan, USA
Distance from station: NW 19mi, 31km
Updated: 01/19/2021 8:15pm
Overcast
Overcast
 Wind from NW
Wind: NW 13 mph , 20 km/h, Gust: 16 mph , 26 km/h
Temperature: 19°F , -7°C
Wind Chill: 6°F , -14°C
Dew Point: 14°F , -10°C
Humidity: 79%
Barometer: 30.00 inHg , 1015.9 hPa
Clouds: Overcast
Visibility: 10 miles , 16 km
Cloud details: Partly cloudy 1300 ft
Mostly cloudy 4900 ft
Overcast 6500 ft
2021/01/20 01:15 KMCD 200115Z AUTO 32011G14KT 10SM SCT013 BKN049 OVC065 M07/M10 A3000 RMK AO2 T10671104
 
KPLN - Pellston, Michigan, USA
Distance from station: WSW 24mi, 38km
Updated: 01/19/2021 8:11pm
Light snow, Overcast
Light snow, Overcast
 Wind from NW
Wind: NW 14 mph , 22 km/h
Temperature: 19°F , -7°C
Wind Chill: 5°F , -15°C
Dew Point: 14°F , -10°C
Humidity: 79%
Barometer: 30.01 inHg , 1016.3 hPa
Summary: Light Snow
Clouds: Overcast
Visibility: 1 3/4 miles , 2.8 km
Cloud details: Overcast 2400 ft
2021/01/20 01:11 KPLN 200111Z AUTO 31012KT 1 3/4SM -SN OVC024 M07/M10 A3001 RMK AO2 P0000 T10671100
KPZQ - Rogers City, Michigan, USA
Distance from station: SE 31mi, 50km
Updated: 01/19/2021 8:15pm
Overcast
Overcast
 Wind from W
Wind: W 9 mph , 15 km/h
Temperature: 21°F , -6°C
Wind Chill: 11°F , -12°C
Dew Point: 10°F , -12°C
Humidity: 63%
Barometer: 30.00 inHg , 1015.9 hPa
Clouds: Overcast
Visibility: 10 miles , 16 km
Cloud details: Overcast 4000 ft
2021/01/20 01:15 KPZQ 200115Z AUTO 27008KT 10SM OVC040 M06/M12 A3000 RMK AO2 T10561117
 
KMGN - Harbor Springs, Michigan, USA
Distance from station: WSW 32mi, 52km
Updated: 01/19/2021 8:15pm
Light snow, Overcast
Light snow, Overcast
 Wind from NW
Wind: NW 7 mph , 11 km/h
Temperature: 19°F , -7°C
Wind Chill: 10°F , -12°C
Dew Point: 14°F , -10°C
Humidity: 79%
Barometer: 30.01 inHg , 1016.3 hPa
Summary: Light Snow
Clouds: Overcast
Visibility: 4 miles , 6 km
Cloud details: Partly cloudy 1300 ft
Mostly cloudy 2500 ft
Overcast 4800 ft
2021/01/20 01:15 KMGN 200115Z AUTO 32006KT 4SM -SN SCT013 BKN025 OVC048 M07/M10 A3001 RMK AO2 T10751106
KDRM - Drummond Is, Michigan, USA
Distance from station: NE 36mi, 59km
Updated: 01/19/2021 8:15pm
Overcast
Overcast
 Wind from NW
Wind: NW 7 mph , 11 km/h
Temperature: 19°F , -7°C
Wind Chill: 10°F , -12°C
Dew Point: 12°F , -11°C
Humidity: 73%
Barometer: 29.98 inHg , 1015.2 hPa
Clouds: Overcast
Visibility: 10 miles , 16 km
Cloud details: Partly cloudy 3100 ft
Mostly cloudy 4100 ft
Overcast 12000 ft
2021/01/20 01:15 KDRM 200115Z AUTO 32006KT 10SM SCT031 BKN041 OVC120 M07/M11 A2998 RMK AO2 T10721110
 
KCIU - Chippewa Intl, Michigan, USA
Distance from station: N 41mi, 66km
Updated: 01/19/2021 8:15pm
Light snow, Overcast
Light snow, Overcast
 Wind from WNW
Wind: WNW 13 mph , 20 km/h
Temperature: 18°F , -8°C
Wind Chill: 5°F , -15°C
Dew Point: 9°F , -13°C
Humidity: 68%
Barometer: 29.99 inHg , 1015.6 hPa
Summary: Light Snow
Clouds: Overcast
Visibility: 9 miles , 14 km
Cloud details: Overcast 3300 ft
2021/01/20 01:15 KCIU 200115Z AUTO 29011KT 9SM -SN OVC033 M08/M13 A2999 RMK AO2 P0000 FZRANO
KGLR - Gaylord, Michigan, USA
Distance from station: SSW 48mi, 77km
Updated: 01/19/2021 8:26pm
Light snow, Overcast
Light snow, Overcast
 Wind from NW
Wind: NW 5 mph , 7 km/h
Temperature: 19°F , -7°C
Wind Chill: 12°F , -11°C
Dew Point: 12°F , -11°C
Humidity: 73%
Barometer: 29.96 inHg , 1014.6 hPa
Summary: Light Snow
Clouds: Overcast
Visibility: 2 miles , 3 km
Cloud details: Partly cloudy 1900 ft
Overcast 2700 ft
2021/01/20 01:26 KGLR 200126Z AUTO 32004KT 2SM -SN SCT019 OVC027 M07/M11 A2996 RMK AO2 P0000 T10671106
 
KCVX - Charlevoix, Michigan, USA
Distance from station: WSW 52mi, 83km
Updated: 01/19/2021 8:15pm
Overcast
Overcast
 Wind from NW
Wind: NW 16 mph , 26 km/h, Gust: 22 mph , 35 km/h
Temperature: 21°F , -6°C
Wind Chill: 7°F , -14°C
Dew Point: 14°F , -10°C
Humidity: 74%
Barometer: 30.02 inHg , 1016.6 hPa
Clouds: Overcast
Visibility: 7 miles , 11 km
Cloud details: Partly cloudy 2000 ft
Mostly cloudy 3600 ft
Overcast 4700 ft
2021/01/20 01:15 KCVX 200115Z AUTO 32014G19KT 7SM SCT020 BKN036 OVC047 M06/M10 A3002 RMK AO2 T10561096
KANJ - Sault Ste Marie, Michigan, USA
Distance from station: N 56mi, 89km
Updated: 01/19/2021 8:17pm
Light snow, Mist, Overcast
Light snow, Mist, Overcast
 Wind from NNW
Wind: NNW 6 mph , 9 km/h
Temperature: 18°F , -8°C
Wind Chill: 10°F , -12°C
Dew Point: 14°F , -10°C
Humidity: 86%
Barometer: 30.00 inHg , 1015.9 hPa
Summary: Light snow, Mist
Clouds: Overcast
Visibility: 1 mile , 2 km
Cloud details: Overcast 1000 ft
2021/01/20 01:17 KANJ 200117Z AUTO 34005KT 1SM -SN BR VV010 M08/M10 A3000 RMK AO2 P0001 T10781100
 
KAPN - Alpena, Michigan, USA
Distance from station: SE 56mi, 89km
Updated: 01/19/2021 7:54pm
Overcast
Overcast
 Wind from WNW
Wind: WNW 5 mph , 7 km/h
Temperature: 21°F , -6°C
Wind Chill: 14°F , -10°C
Dew Point: 18°F , -8°C
Humidity: 86%
Barometer: 29.99 inHg , 1015.6 hPa
Clouds: Overcast
Visibility: 10 miles , 16 km
Cloud details: Few Clouds 2100 ft
Partly cloudy 2600 ft
Overcast 3900 ft
2021/01/20 00:54 KAPN 200054Z 30004KT 10SM FEW021 SCT026 OVC039 M06/M08 A2999 RMK AO2 SLP167 T10561083
CYAM - Sault Ste Marie, Ontario, Canada
Distance from station: N 56mi, 90km
Updated: 01/19/2021 8:00pm
Light snow, Showers, Small hail, Low drifting, Snow, Overcast
Light snow, Showers, Small hail, Low drifting, Snow, Overcast
 Wind from NNW
Wind: NNW 16 mph , 26 km/h, Gust: 23 mph , 37 km/h
Temperature: 18°F , -8°C
Wind Chill: 3°F , -16°C
Dew Point: 9°F , -13°C
Humidity: 68%
Barometer: 29.99 inHg , 1015.6 hPa
Summary: Light snow, Showers, Small hail, Low drifting, Snow
Clouds: Overcast
Visibility: 8 miles , 13 km
Cloud details: Few Clouds 700 ft
Partly cloudy 2100 ft
Mostly cloudy 3400 ft
Mostly cloudy 7000 ft
Overcast 13000 ft
2021/01/20 01:00 CYAM 200100Z 33014G20KT 8SM -SHSNGS DRSN FEW007 SCT021TCU BKN034 BKN070 OVC130 M08/M13 A2999 RMK CF1TCU2CU3AC1AC1 VIS VRB 6-10 SLP170
 
KSJX - Beaver Island, Michigan, USA
Distance from station: W 60mi, 96km
Updated: 01/19/2021 8:15pm
Light snow, Overcast
Light snow, Overcast
 Wind from WNW
Wind: WNW 9 mph , 15 km/h, Gust: 17 mph , 28 km/h
Temperature: 19°F , -7°C
Wind Chill: 8°F , -13°C
Dew Point: 12°F , -11°C
Humidity: 73%
Barometer: 30.04 inHg , 1017.3 hPa
Summary: Light Snow
Clouds: Overcast
Visibility: 7 miles , 11 km
Cloud details: Partly cloudy 2000 ft
Mostly cloudy 2700 ft
Overcast 3300 ft
2021/01/20 01:15 KSJX 200115Z AUTO 30008G15KT 270V330 7SM -SN SCT020 BKN027 OVC033 M07/M11 A3004 RMK AO2 T10701107
KACB - Bellaire, Michigan, USA
Distance from station: SW 63mi, 102km
Updated: 01/19/2021 8:15pm
Snow, Overcast
Snow, Overcast
 Wind from NW
Wind: NW 5 mph , 7 km/h
Temperature: 21°F , -6°C
Wind Chill: 14°F , -10°C
Dew Point: 19°F , -7°C
Humidity: 93%
Barometer: 30.03 inHg , 1016.9 hPa
Summary: Snow
Clouds: Overcast
Visibility: 1 mile , 2 km
Cloud details: Overcast 900 ft
2021/01/20 01:15 KACB 200115Z AUTO 31004KT 1SM SN OVC009 M06/M07 A3003 RMK AO2 T10571075
 
CWNL - Great Duck Island, Ontario, Canada
Distance from station: E 66mi, 106km
Updated: 01/19/2021 7:00pm
NOT Current

 Wind from NNW
Wind: NNW 12 mph , 19 km/h, Gust: 21 mph , 33 km/h
Temperature: 23°F , -5°C
Wind Chill: 11°F , -12°C
Dew Point: 16°F , -9°C
Humidity: 74%
2021/01/20 00:00 CWNL 200000Z AUTO 34010G18KT M05/M09 RMK AO1 PK WND 00018/2354 SLP151 T10461092 50006
KERY - Newberry, Michigan, USA
Distance from station: NW 69mi, 112km
Updated: 01/19/2021 8:15pm
Light snow, Overcast
Light snow, Overcast
 Wind from WNW
Wind: WNW 6 mph , 9 km/h
Temperature: 16°F , -9°C
Wind Chill: 7°F , -14°C
Dew Point: 12°F , -11°C
Humidity: 86%
Barometer: 30.01 inHg , 1016.3 hPa
Summary: Light Snow
Clouds: Overcast
Visibility: 4 miles , 6 km
Cloud details: Partly cloudy 2400 ft
Mostly cloudy 3500 ft
Overcast 5000 ft
2021/01/20 01:15 KERY 200115Z AUTO 29005KT 4SM -SN SCT024 BKN035 OVC050 M09/M11 A3001 RMK AO2 T10881106
 
KGOV - Grayling Af, Michigan, USA
Distance from station: SSW 70mi, 113km
Updated: 01/19/2021 7:58pm
Overcast
Overcast
 Wind from WSW
Wind: WSW 6 mph , 9 km/h
Temperature: 18°F , -8°C
Wind Chill: 10°F , -12°C
Dew Point: 14°F , -10°C
Humidity: 86%
Barometer: 29.97 inHg , 1014.9 hPa
Clouds: Overcast
Visibility: 10 miles , 16 km
Cloud details: Overcast 3500 ft
2021/01/20 00:58 KGOV 200058Z AUTO 25005KT 10SM OVC035 M08/M10 A2997 RMK AO2 SNB02E11 SLP175 P0000 T10761103 $